Ashley Falls, Massachusetts
Current Conditions -  °F | °C
As of 3:22 PM on Monday 22 Dec 2014 (Local Time) from KPSF Reporting Station
Overcast Overcast  
Wind Chill:   Ceiling: 1500
Heat Index:   Visibility: 10mi
Dew Point: -1°   Wind: 0mph
Humidity: 82%   Direction: NA
Pressure: 30.22"   Gusts: NA
Location:  42.06°N, 73.34°W
Report Text: KPSF 222022Z AUTO 00000KT 10SM BKN015 OVC036 02/M01 A3022 RMK AO2 T00221006
Loading
Personal Weather Stations






























Interactive Weather Map New forecast layout! Learn more

10-Day Weather Forecast

Advertisements
Track Severe Weather on mobile